sensor_id;sensor_type;location;lat;lon;timestamp;pressure;altitude;pressure_sealevel;temperature
29549;BMP280;16487;53.094;8.800;2024-01-10T00:01:07;103437.69;;;-4.82
29549;BMP280;16487;53.094;8.800;2024-01-10T00:03:34;103433.41;;;-4.85
29549;BMP280;16487;53.094;8.800;2024-01-10T00:06:01;103435.19;;;-4.86
29549;BMP280;16487;53.094;8.800;2024-01-10T00:08:31;103436.22;;;-4.88
29549;BMP280;16487;53.094;8.800;2024-01-10T00:10:58;103432.66;;;-4.87
29549;BMP280;16487;53.094;8.800;2024-01-10T00:13:25;103437.34;;;-4.92
29549;BMP280;16487;53.094;8.800;2024-01-10T00:15:53;103425.50;;;-5.00
29549;BMP280;16487;53.094;8.800;2024-01-10T00:18:21;103422.97;;;-5.01
29549;BMP280;16487;53.094;8.800;2024-01-10T00:20:48;103416.84;;;-5.02
29549;BMP280;16487;53.094;8.800;2024-01-10T00:23:15;103416.25;;;-5.07
29549;BMP280;16487;53.094;8.800;2024-01-10T00:25:43;103408.31;;;-5.05
29549;BMP280;16487;53.094;8.800;2024-01-10T00:28:10;103409.97;;;-5.04
29549;BMP280;16487;53.094;8.800;2024-01-10T00:30:37;103410.84;;;-5.04
29549;BMP280;16487;53.094;8.800;2024-01-10T00:33:05;103404.81;;;-5.06
29549;BMP280;16487;53.094;8.800;2024-01-10T00:35:35;103396.31;;;-4.95
29549;BMP280;16487;53.094;8.800;2024-01-10T00:38:02;103384.19;;;-4.97
29549;BMP280;16487;53.094;8.800;2024-01-10T00:40:29;103386.41;;;-5.06
29549;BMP280;16487;53.094;8.800;2024-01-10T00:42:57;103389.97;;;-5.07
29549;BMP280;16487;53.094;8.800;2024-01-10T00:45:24;103387.81;;;-5.15
29549;BMP280;16487;53.094;8.800;2024-01-10T00:47:51;103386.69;;;-5.10
29549;BMP280;16487;53.094;8.800;2024-01-10T00:50:18;103378.34;;;-5.17
29549;BMP280;16487;53.094;8.800;2024-01-10T00:52:47;103380.13;;;-5.18
29549;BMP280;16487;53.094;8.800;2024-01-10T00:55:14;103373.75;;;-5.14
29549;BMP280;16487;53.094;8.800;2024-01-10T00:57:41;103366.19;;;-5.20
29549;BMP280;16487;53.094;8.800;2024-01-10T01:00:10;103366.81;;;-5.15
29549;BMP280;16487;53.094;8.800;2024-01-10T01:02:37;103368.66;;;-5.17
29549;BMP280;16487;53.094;8.800;2024-01-10T01:05:05;103375.53;;;-5.14
29549;BMP280;16487;53.094;8.800;2024-01-10T01:07:34;103370.38;;;-5.16
29549;BMP280;16487;53.094;8.800;2024-01-10T01:10:03;103367.84;;;-5.17
29549;BMP280;16487;53.094;8.800;2024-01-10T01:12:31;103375.00;;;-5.21
29549;BMP280;16487;53.094;8.800;2024-01-10T01:14:59;103359.09;;;-5.18
29549;BMP280;16487;53.094;8.800;2024-01-10T01:17:26;103366.28;;;-5.21
29549;BMP280;16487;53.094;8.800;2024-01-10T01:19:54;103370.03;;;-5.25
29549;BMP280;16487;53.094;8.800;2024-01-10T01:22:21;103378.00;;;-5.27
29549;BMP280;16487;53.094;8.800;2024-01-10T01:24:48;103381.84;;;-5.33
29549;BMP280;16487;53.094;8.800;2024-01-10T01:27:16;103384.66;;;-5.36
29549;BMP280;16487;53.094;8.800;2024-01-10T01:29:44;103378.09;;;-5.29
29549;BMP280;16487;53.094;8.800;2024-01-10T01:32:11;103380.63;;;-5.27
29549;BMP280;16487;53.094;8.800;2024-01-10T01:34:39;103380.84;;;-5.30
29549;BMP280;16487;53.094;8.800;2024-01-10T01:37:07;103380.72;;;-5.29
29549;BMP280;16487;53.094;8.800;2024-01-10T01:39:34;103384.84;;;-5.24
29549;BMP280;16487;53.094;8.800;2024-01-10T01:42:01;103385.06;;;-5.27
29549;BMP280;16487;53.094;8.800;2024-01-10T01:44:29;103387.47;;;-5.24
29549;BMP280;16487;53.094;8.800;2024-01-10T01:46:57;103383.25;;;-5.27
29549;BMP280;16487;53.094;8.800;2024-01-10T01:49:24;103384.56;;;-5.20
29549;BMP280;16487;53.094;8.800;2024-01-10T01:51:52;103384.44;;;-5.17
29549;BMP280;16487;53.094;8.800;2024-01-10T01:54:19;103386.28;;;-5.19
29549;BMP280;16487;53.094;8.800;2024-01-10T01:56:46;103393.88;;;-5.29
29549;BMP280;16487;53.094;8.800;2024-01-10T01:59:14;103375.66;;;-5.32
29549;BMP280;16487;53.094;8.800;2024-01-10T02:01:42;103382.19;;;-5.39
29549;BMP280;16487;53.094;8.800;2024-01-10T02:04:10;103389.22;;;-5.39
29549;BMP280;16487;53.094;8.800;2024-01-10T02:06:37;103386.50;;;-5.38
29549;BMP280;16487;53.094;8.800;2024-01-10T02:09:05;103382.09;;;-5.37
29549;BMP280;16487;53.094;8.800;2024-01-10T02:11:32;103381.78;;;-5.47
29549;BMP280;16487;53.094;8.800;2024-01-10T02:13:59;103386.31;;;-5.49
29549;BMP280;16487;53.094;8.800;2024-01-10T02:16:27;103385.66;;;-5.54
29549;BMP280;16487;53.094;8.800;2024-01-10T02:18:55;103382.13;;;-5.53
29549;BMP280;16487;53.094;8.800;2024-01-10T02:21:22;103378.66;;;-5.54
29549;BMP280;16487;53.094;8.800;2024-01-10T02:23:49;103375.53;;;-5.61
29549;BMP280;16487;53.094;8.800;2024-01-10T02:26:18;103375.53;;;-5.61
29549;BMP280;16487;53.094;8.800;2024-01-10T02:28:45;103373.94;;;-5.63
29549;BMP280;16487;53.094;8.800;2024-01-10T02:31:12;103371.22;;;-5.62
29549;BMP280;16487;53.094;8.800;2024-01-10T02:33:39;103368.03;;;-5.67
29549;BMP280;16487;53.094;8.800;2024-01-10T02:36:07;103370.78;;;-5.70
29549;BMP280;16487;53.094;8.800;2024-01-10T02:38:34;103366.13;;;-5.65
29549;BMP280;16487;53.094;8.800;2024-01-10T02:41:01;103376.56;;;-5.63
29549;BMP280;16487;53.094;8.800;2024-01-10T02:43:30;103363.22;;;-5.60
29549;BMP280;16487;53.094;8.800;2024-01-10T02:45:57;103359.50;;;-5.72
29549;BMP280;16487;53.094;8.800;2024-01-10T02:48:24;103361.63;;;-5.63
29549;BMP280;16487;53.094;8.800;2024-01-10T02:50:51;103364.16;;;-5.61
29549;BMP280;16487;53.094;8.800;2024-01-10T02:53:18;103350.19;;;-5.62
29549;BMP280;16487;53.094;8.800;2024-01-10T02:55:45;103349.53;;;-5.65
29549;BMP280;16487;53.094;8.800;2024-01-10T02:58:13;103357.91;;;-5.58
29549;BMP280;16487;53.094;8.800;2024-01-10T03:00:41;103355.88;;;-5.69
29549;BMP280;16487;53.094;8.800;2024-01-10T03:03:09;103362.41;;;-5.61
29549;BMP280;16487;53.094;8.800;2024-01-10T03:05:36;103361.84;;;-5.66
29549;BMP280;16487;53.094;8.800;2024-01-10T03:08:03;103354.69;;;-5.64
29549;BMP280;16487;53.094;8.800;2024-01-10T03:10:31;103363.44;;;-5.63
29549;BMP280;16487;53.094;8.800;2024-01-10T03:12:58;103362.66;;;-5.65
29549;BMP280;16487;53.094;8.800;2024-01-10T03:15:25;103353.09;;;-5.66
29549;BMP280;16487;53.094;8.800;2024-01-10T03:17:53;103354.53;;;-5.61
29549;BMP280;16487;53.094;8.800;2024-01-10T03:20:20;103349.16;;;-5.59
29549;BMP280;16487;53.094;8.800;2024-01-10T03:22:48;103341.88;;;-5.54
29549;BMP280;16487;53.094;8.800;2024-01-10T03:25:15;103337.47;;;-5.53
29549;BMP280;16487;53.094;8.800;2024-01-10T03:27:42;103339.53;;;-5.58
29549;BMP280;16487;53.094;8.800;2024-01-10T03:30:10;103341.22;;;-5.57
29549;BMP280;16487;53.094;8.800;2024-01-10T03:32:37;103342.31;;;-5.62
29549;BMP280;16487;53.094;8.800;2024-01-10T03:35:07;103336.97;;;-5.60
29549;BMP280;16487;53.094;8.800;2024-01-10T03:37:34;103324.78;;;-5.61
29549;BMP280;16487;53.094;8.800;2024-01-10T03:40:01;103326.56;;;-5.62
29549;BMP280;16487;53.094;8.800;2024-01-10T03:42:28;103327.59;;;-5.64
29549;BMP280;16487;53.094;8.800;2024-01-10T03:44:55;103323.41;;;-5.68
29549;BMP280;16487;53.094;8.800;2024-01-10T03:47:23;103333.88;;;-5.67
29549;BMP280;16487;53.094;8.800;2024-01-10T03:49:50;103324.38;;;-5.69
29549;BMP280;16487;53.094;8.800;2024-01-10T03:52:18;103328.66;;;-5.68
29549;BMP280;16487;53.094;8.800;2024-01-10T03:54:45;103332.31;;;-5.71
29549;BMP280;16487;53.094;8.800;2024-01-10T03:57:13;103335.41;;;-5.79
29549;BMP280;16487;53.094;8.800;2024-01-10T03:59:40;103347.00;;;-5.83
29549;BMP280;16487;53.094;8.800;2024-01-10T04:02:07;103340.28;;;-5.88
29549;BMP280;16487;53.094;8.800;2024-01-10T04:04:36;103351.56;;;-5.86
29549;BMP280;16487;53.094;8.800;2024-01-10T04:07:04;103348.28;;;-5.90
29549;BMP280;16487;53.094;8.800;2024-01-10T04:09:32;103343.19;;;-5.93
29549;BMP280;16487;53.094;8.800;2024-01-10T04:11:59;103338.44;;;-5.86
29549;BMP280;16487;53.094;8.800;2024-01-10T04:14:26;103334.13;;;-5.87
29549;BMP280;16487;53.094;8.800;2024-01-10T04:16:54;103334.13;;;-5.87
29549;BMP280;16487;53.094;8.800;2024-01-10T04:19:21;103328.19;;;-5.91
29549;BMP280;16487;53.094;8.800;2024-01-10T04:21:48;103328.03;;;-5.88
29549;BMP280;16487;53.094;8.800;2024-01-10T04:24:15;103329.22;;;-5.94
29549;BMP280;16487;53.094;8.800;2024-01-10T04:26:44;103327.16;;;-5.88
29549;BMP280;16487;53.094;8.800;2024-01-10T04:29:11;103327.53;;;-5.95
29549;BMP280;16487;53.094;8.800;2024-01-10T04:31:39;103325.69;;;-5.93
29549;BMP280;16487;53.094;8.800;2024-01-10T04:34:06;103322.97;;;-5.91
29549;BMP280;16487;53.094;8.800;2024-01-10T04:36:33;103341.25;;;-5.90
29549;BMP280;16487;53.094;8.800;2024-01-10T04:39:00;103334.75;;;-5.98
29549;BMP280;16487;53.094;8.800;2024-01-10T04:41:28;103330.34;;;-5.98
29549;BMP280;16487;53.094;8.800;2024-01-10T04:43:58;103329.13;;;-5.92
29549;BMP280;16487;53.094;8.800;2024-01-10T04:46:25;103320.69;;;-5.97
29549;BMP280;16487;53.094;8.800;2024-01-10T04:48:52;103317.03;;;-5.95
29549;BMP280;16487;53.094;8.800;2024-01-10T04:51:19;103311.88;;;-5.96
29549;BMP280;16487;53.094;8.800;2024-01-10T04:53:46;103320.00;;;-6.01
29549;BMP280;16487;53.094;8.800;2024-01-10T04:56:13;103323.44;;;-6.00
29549;BMP280;16487;53.094;8.800;2024-01-10T04:58:40;103322.78;;;-6.04
29549;BMP280;16487;53.094;8.800;2024-01-10T05:01:11;103320.00;;;-6.01
29549;BMP280;16487;53.094;8.800;2024-01-10T05:03:39;103315.53;;;-5.99
29549;BMP280;16487;53.094;8.800;2024-01-10T05:06:06;103316.22;;;-5.95
29549;BMP280;16487;53.094;8.800;2024-01-10T05:08:33;103310.69;;;-5.91
29549;BMP280;16487;53.094;8.800;2024-01-10T05:11:00;103308.06;;;-5.91
29549;BMP280;16487;53.094;8.800;2024-01-10T05:13:28;103306.84;;;-5.85
29549;BMP280;16487;53.094;8.800;2024-01-10T05:15:55;103313.88;;;-5.85
29549;BMP280;16487;53.094;8.800;2024-01-10T05:18:25;103312.28;;;-5.88
29549;BMP280;16487;53.094;8.800;2024-01-10T05:20:52;103299.94;;;-5.86
29549;BMP280;16487;53.094;8.800;2024-01-10T05:23:19;103309.66;;;-5.88
29549;BMP280;16487;53.094;8.800;2024-01-10T05:25:46;103309.75;;;-5.90
29549;BMP280;16487;53.094;8.800;2024-01-10T05:28:14;103309.06;;;-5.93
29549;BMP280;16487;53.094;8.800;2024-01-10T05:30:43;103307.13;;;-5.90
29549;BMP280;16487;53.094;8.800;2024-01-10T05:33:10;103307.81;;;-5.86
29549;BMP280;16487;53.094;8.800;2024-01-10T05:35:39;103312.19;;;-5.86
29549;BMP280;16487;53.094;8.800;2024-01-10T05:38:06;103302.63;;;-5.87
29549;BMP280;16487;53.094;8.800;2024-01-10T05:40:33;103305.59;;;-5.94
29549;BMP280;16487;53.094;8.800;2024-01-10T05:43:00;103304.59;;;-5.91
29549;BMP280;16487;53.094;8.800;2024-01-10T05:45:27;103301.78;;;-5.88
29549;BMP280;16487;53.094;8.800;2024-01-10T05:47:55;103305.69;;;-5.79
29549;BMP280;16487;53.094;8.800;2024-01-10T05:50:22;103294.56;;;-5.84
29549;BMP280;16487;53.094;8.800;2024-01-10T05:52:51;103306.09;;;-5.87
29549;BMP280;16487;53.094;8.800;2024-01-10T05:55:18;103312.19;;;-5.86
29549;BMP280;16487;53.094;8.800;2024-01-10T05:57:45;103300.53;;;-5.81
29549;BMP280;16487;53.094;8.800;2024-01-10T06:00:13;103302.78;;;-5.75
29549;BMP280;16487;53.094;8.800;2024-01-10T06:02:40;103299.13;;;-5.72
29549;BMP280;16487;53.094;8.800;2024-01-10T06:05:09;103294.72;;;-5.71
29549;BMP280;16487;53.094;8.800;2024-01-10T06:07:37;103297.03;;;-5.65
29549;BMP280;16487;53.094;8.800;2024-01-10T06:10:06;103290.31;;;-5.71
29549;BMP280;16487;53.094;8.800;2024-01-10T06:12:33;103290.41;;;-5.72
29549;BMP280;16487;53.094;8.800;2024-01-10T06:15:00;103291.06;;;-5.69
29549;BMP280;16487;53.094;8.800;2024-01-10T06:17:28;103279.41;;;-5.63
29549;BMP280;16487;53.094;8.800;2024-01-10T06:19:55;103280.13;;;-5.61
29549;BMP280;16487;53.094;8.800;2024-01-10T06:22:22;103275.75;;;-5.61
29549;BMP280;16487;53.094;8.800;2024-01-10T06:24:49;103281.94;;;-5.62
29549;BMP280;16487;53.094;8.800;2024-01-10T06:27:18;103284.56;;;-5.62
29549;BMP280;16487;53.094;8.800;2024-01-10T06:29:45;103290.19;;;-5.68
29549;BMP280;16487;53.094;8.800;2024-01-10T06:32:12;103298.28;;;-5.72
29549;BMP280;16487;53.094;8.800;2024-01-10T06:34:39;103291.50;;;-5.77
29549;BMP280;16487;53.094;8.800;2024-01-10T06:37:06;103290.03;;;-5.81
29549;BMP280;16487;53.094;8.800;2024-01-10T06:39:33;103292.75;;;-5.82
29549;BMP280;16487;53.094;8.800;2024-01-10T06:42:00;103285.25;;;-5.74
29549;BMP280;16487;53.094;8.800;2024-01-10T06:44:29;103290.31;;;-5.71
29549;BMP280;16487;53.094;8.800;2024-01-10T06:46:56;103298.94;;;-5.69
29549;BMP280;16487;53.094;8.800;2024-01-10T06:49:23;103290.19;;;-5.68
29549;BMP280;16487;53.094;8.800;2024-01-10T06:51:51;103287.44;;;-5.66
29549;BMP280;16487;53.094;8.800;2024-01-10T06:54:19;103280.34;;;-5.64
29549;BMP280;16487;53.094;8.800;2024-01-10T06:56:46;103285.31;;;-5.60
29549;BMP280;16487;53.094;8.800;2024-01-10T06:59:14;103298.72;;;-5.64
29549;BMP280;16487;53.094;8.800;2024-01-10T07:01:42;103315.97;;;-5.60
29549;BMP280;16487;53.094;8.800;2024-01-10T07:04:11;103297.31;;;-5.55
29549;BMP280;16487;53.094;8.800;2024-01-10T07:06:38;103304.63;;;-5.61
29549;BMP280;16487;53.094;8.800;2024-01-10T07:09:05;103302.00;;;-5.61
29549;BMP280;16487;53.094;8.800;2024-01-10T07:11:32;103283.53;;;-5.59
29549;BMP280;16487;53.094;8.800;2024-01-10T07:13:59;103297.78;;;-5.63
29549;BMP280;16487;53.094;8.800;2024-01-10T07:16:26;103308.47;;;-5.66
29549;BMP280;16487;53.094;8.800;2024-01-10T07:18:55;103305.84;;;-5.66
29549;BMP280;16487;53.094;8.800;2024-01-10T07:21:22;103304.06;;;-5.66
29549;BMP280;16487;53.094;8.800;2024-01-10T07:23:49;103309.97;;;-5.62
29549;BMP280;16487;53.094;8.800;2024-01-10T07:26:16;103316.22;;;-5.65
29549;BMP280;16487;53.094;8.800;2024-01-10T07:28:43;103317.09;;;-5.64
29549;BMP280;16487;53.094;8.800;2024-01-10T07:31:11;103320.47;;;-5.62
29549;BMP280;16487;53.094;8.800;2024-01-10T07:33:38;103314.63;;;-5.67
29549;BMP280;16487;53.094;8.800;2024-01-10T07:36:07;103314.56;;;-5.66
29549;BMP280;16487;53.094;8.800;2024-01-10T07:38:35;103310.16;;;-5.65
29549;BMP280;16487;53.094;8.800;2024-01-10T07:41:02;103321.69;;;-5.68
29549;BMP280;16487;53.094;8.800;2024-01-10T07:43:30;103334.81;;;-5.68
29549;BMP280;16487;53.094;8.800;2024-01-10T07:45:57;103324.22;;;-5.66
29549;BMP280;16487;53.094;8.800;2024-01-10T07:48:23;103332.19;;;-5.68
29549;BMP280;16487;53.094;8.800;2024-01-10T07:50:51;103333.91;;;-5.68
29549;BMP280;16487;53.094;8.800;2024-01-10T07:53:19;103339.88;;;-5.65
29549;BMP280;16487;53.094;8.800;2024-01-10T07:55:46;103337.25;;;-5.65
29549;BMP280;16487;53.094;8.800;2024-01-10T07:58:13;103337.63;;;-5.56
29549;BMP280;16487;53.094;8.800;2024-01-10T08:00:42;103330.72;;;-5.57
29549;BMP280;16487;53.094;8.800;2024-01-10T08:03:09;103324.59;;;-5.58
29549;BMP280;16487;53.094;8.800;2024-01-10T08:05:36;103330.63;;;-5.56
29549;BMP280;16487;53.094;8.800;2024-01-10T08:08:04;103331.38;;;-5.54
29549;BMP280;16487;53.094;8.800;2024-01-10T08:10:32;103340.03;;;-5.52
29549;BMP280;16487;53.094;8.800;2024-01-10T08:13:01;103346.81;;;-5.48
29549;BMP280;16487;53.094;8.800;2024-01-10T08:15:28;103339.03;;;-5.49
29549;BMP280;16487;53.094;8.800;2024-01-10T08:17:55;103343.41;;;-5.50
29549;BMP280;16487;53.094;8.800;2024-01-10T08:20:22;103340.78;;;-5.50
29549;BMP280;16487;53.094;8.800;2024-01-10T08:22:50;103343.03;;;-5.44
29549;BMP280;16487;53.094;8.800;2024-01-10T08:25:17;103340.50;;;-5.45
29549;BMP280;16487;53.094;8.800;2024-01-10T08:27:45;103336.59;;;-5.38
29549;BMP280;16487;53.094;8.800;2024-01-10T08:30:13;103335.91;;;-5.41
29549;BMP280;16487;53.094;8.800;2024-01-10T08:32:40;103339.31;;;-5.39
29549;BMP280;16487;53.094;8.800;2024-01-10T08:35:08;103331.22;;;-5.36
29549;BMP280;16487;53.094;8.800;2024-01-10T08:37:35;103335.41;;;-5.32
29549;BMP280;16487;53.094;8.800;2024-01-10T08:40:02;103331.75;;;-5.30
29549;BMP280;16487;53.094;8.800;2024-01-10T08:42:29;103337.94;;;-5.31
29549;BMP280;16487;53.094;8.800;2024-01-10T08:44:58;103338.13;;;-5.19
29549;BMP280;16487;53.094;8.800;2024-01-10T08:47:25;103336.09;;;-5.14
29549;BMP280;16487;53.094;8.800;2024-01-10T08:49:52;103338.63;;;-5.13
29549;BMP280;16487;53.094;8.800;2024-01-10T08:52:19;103329.44;;;-5.05
29549;BMP280;16487;53.094;8.800;2024-01-10T08:54:46;103337.41;;;-5.07
29549;BMP280;16487;53.094;8.800;2024-01-10T08:57:13;103331.31;;;-5.07
29549;BMP280;16487;53.094;8.800;2024-01-10T08:59:41;103325.84;;;-5.04
29549;BMP280;16487;53.094;8.800;2024-01-10T09:02:10;103326.63;;;-5.02
29549;BMP280;16487;53.094;8.800;2024-01-10T09:04:37;103340.06;;;-4.92
29549;BMP280;16487;53.094;8.800;2024-01-10T09:07:04;103342.13;;;-4.83
29549;BMP280;16487;53.094;8.800;2024-01-10T09:09:31;103344.75;;;-4.83
29549;BMP280;16487;53.094;8.800;2024-01-10T09:12:00;103348.16;;;-4.81
29549;BMP280;16487;53.094;8.800;2024-01-10T09:14:27;103348.00;;;-4.78
29549;BMP280;16487;53.094;8.800;2024-01-10T09:16:54;103343.16;;;-4.71
29549;BMP280;16487;53.094;8.800;2024-01-10T09:19:23;103340.00;;;-4.76
29549;BMP280;16487;53.094;8.800;2024-01-10T09:21:50;103350.13;;;-4.70
29549;BMP280;16487;53.094;8.800;2024-01-10T09:24:17;103335.84;;;-4.66
29549;BMP280;16487;53.094;8.800;2024-01-10T09:26:57;103339.06;;;-4.61
29549;BMP280;16487;53.094;8.800;2024-01-10T09:29:24;103339.88;;;-4.60
29549;BMP280;16487;53.094;8.800;2024-01-10T09:31:51;103343.94;;;-4.55
29549;BMP280;16487;53.094;8.800;2024-01-10T09:34:19;103348.44;;;-4.57
29549;BMP280;16487;53.094;8.800;2024-01-10T09:36:48;103350.06;;;-4.54
29549;BMP280;16487;53.094;8.800;2024-01-10T09:39:15;103349.41;;;-4.43
29549;BMP280;16487;53.094;8.800;2024-01-10T09:41:46;103352.69;;;-4.40
29549;BMP280;16487;53.094;8.800;2024-01-10T09:44:13;103355.66;;;-4.31
29549;BMP280;16487;53.094;8.800;2024-01-10T09:46:43;103361.34;;;-4.25
29549;BMP280;16487;53.094;8.800;2024-01-10T09:49:12;103371.06;;;-4.25
29549;BMP280;16487;53.094;8.800;2024-01-10T09:51:40;103369.56;;;-4.15
29549;BMP280;16487;53.094;8.800;2024-01-10T09:54:09;103361.06;;;-4.06
29549;BMP280;16487;53.094;8.800;2024-01-10T09:56:36;103364.25;;;-4.00
29549;BMP280;16487;53.094;8.800;2024-01-10T09:59:04;103380.22;;;-4.03
29549;BMP280;16487;53.094;8.800;2024-01-10T10:01:31;103382.59;;;-3.99
29549;BMP280;16487;53.094;8.800;2024-01-10T10:03:58;103374.59;;;-3.97
29549;BMP280;16487;53.094;8.800;2024-01-10T10:06:26;103376.72;;;-3.89
29549;BMP280;16487;53.094;8.800;2024-01-10T10:08:53;103379.47;;;-3.91
29549;BMP280;16487;53.094;8.800;2024-01-10T10:11:22;103378.75;;;-3.80
29549;BMP280;16487;53.094;8.800;2024-01-10T10:13:49;103393.56;;;-3.65
29549;BMP280;16487;53.094;8.800;2024-01-10T10:16:23;103400.00;;;-3.56
29549;BMP280;16487;53.094;8.800;2024-01-10T10:18:50;103396.66;;;-3.58
29549;BMP280;16487;53.094;8.800;2024-01-10T10:21:18;103404.19;;;-3.52
29549;BMP280;16487;53.094;8.800;2024-01-10T10:23:57;103403.69;;;-3.58
29549;BMP280;16487;53.094;8.800;2024-01-10T10:26:27;103410.22;;;-3.64
29549;BMP280;16487;53.094;8.800;2024-01-10T10:28:54;103396.72;;;-3.45
29549;BMP280;16487;53.094;8.800;2024-01-10T10:31:24;103394.28;;;-3.35
29549;BMP280;16487;53.094;8.800;2024-01-10T10:33:51;103418.78;;;-3.33
29549;BMP280;16487;53.094;8.800;2024-01-10T10:36:19;103430.75;;;-3.42
29549;BMP280;16487;53.094;8.800;2024-01-10T10:38:47;103418.47;;;-3.16
29549;BMP280;16487;53.094;8.800;2024-01-10T10:41:14;103448.97;;;-2.08
29549;BMP280;16487;53.094;8.800;2024-01-10T10:43:43;103455.94;;;-0.76
29549;BMP280;16487;53.094;8.800;2024-01-10T10:46:11;103486.78;;;-0.41
29549;BMP280;16487;53.094;8.800;2024-01-10T10:48:38;103476.56;;;0.33
29549;BMP280;16487;53.094;8.800;2024-01-10T10:51:08;103489.03;;;0.09
29549;BMP280;16487;53.094;8.800;2024-01-10T10:53:36;103476.28;;;1.10
29549;BMP280;16487;53.094;8.800;2024-01-10T10:56:04;103460.69;;;0.75
29549;BMP280;16487;53.094;8.800;2024-01-10T10:58:33;103483.00;;;0.93
29549;BMP280;16487;53.094;8.800;2024-01-10T11:01:03;103476.13;;;1.43
29549;BMP280;16487;53.094;8.800;2024-01-10T11:03:31;103459.31;;;1.02
29549;BMP280;16487;53.094;8.800;2024-01-10T11:06:01;103449.72;;;1.51
29549;BMP280;16487;53.094;8.800;2024-01-10T11:08:33;103464.13;;;1.49
29549;BMP280;16487;53.094;8.800;2024-01-10T11:11:03;103469.84;;;1.44
29549;BMP280;16487;53.094;8.800;2024-01-10T11:13:45;103482.66;;;1.70
29549;BMP280;16487;53.094;8.800;2024-01-10T11:16:39;103438.19;;;1.00
29549;BMP280;16487;53.094;8.800;2024-01-10T11:19:36;103420.19;;;0.40
29549;BMP280;16487;53.094;8.800;2024-01-10T11:22:13;103406.63;;;0.34
29549;BMP280;16487;53.094;8.800;2024-01-10T11:24:44;103378.16;;;0.57
29549;BMP280;16487;53.094;8.800;2024-01-10T11:27:12;103398.38;;;0.27
29549;BMP280;16487;53.094;8.800;2024-01-10T11:29:40;103400.75;;;0.51
29549;BMP280;16487;53.094;8.800;2024-01-10T11:32:13;103391.84;;;0.31
29549;BMP280;16487;53.094;8.800;2024-01-10T11:34:49;103428.50;;;0.68
29549;BMP280;16487;53.094;8.800;2024-01-10T11:37:16;103450.38;;;1.34
29549;BMP280;16487;53.094;8.800;2024-01-10T11:39:44;103492.91;;;1.94
29549;BMP280;16487;53.094;8.800;2024-01-10T11:42:11;103489.75;;;2.30
29549;BMP280;16487;53.094;8.800;2024-01-10T11:44:48;103502.47;;;2.55
29549;BMP280;16487;53.094;8.800;2024-01-10T11:47:17;103519.69;;;3.56
29549;BMP280;16487;53.094;8.800;2024-01-10T11:49:53;103518.03;;;3.27
29549;BMP280;16487;53.094;8.800;2024-01-10T11:52:21;103512.59;;;3.47
29549;BMP280;16487;53.094;8.800;2024-01-10T11:54:49;103486.00;;;3.37
29549;BMP280;16487;53.094;8.800;2024-01-10T11:57:20;103501.56;;;3.60
29549;BMP280;16487;53.094;8.800;2024-01-10T11:59:50;103492.81;;;3.22
29549;BMP280;16487;53.094;8.800;2024-01-10T12:02:20;103477.97;;;2.42
29549;BMP280;16487;53.094;8.800;2024-01-10T12:04:47;103452.63;;;1.79
29549;BMP280;16487;53.094;8.800;2024-01-10T12:07:19;103437.28;;;1.11
29549;BMP280;16487;53.094;8.800;2024-01-10T12:09:47;103418.47;;;1.94
29549;BMP280;16487;53.094;8.800;2024-01-10T12:12:15;103427.00;;;1.98
29549;BMP280;16487;53.094;8.800;2024-01-10T12:14:42;103472.88;;;2.88
29549;BMP280;16487;53.094;8.800;2024-01-10T12:17:10;103486.03;;;2.70
29549;BMP280;16487;53.094;8.800;2024-01-10T12:19:38;103481.84;;;2.87
29549;BMP280;16487;53.094;8.800;2024-01-10T12:22:05;103498.84;;;3.79
29549;BMP280;16487;53.094;8.800;2024-01-10T12:24:43;103489.28;;;3.21
29549;BMP280;16487;53.094;8.800;2024-01-10T12:27:10;103501.97;;;3.37
29549;BMP280;16487;53.094;8.800;2024-01-10T12:29:37;103489.97;;;2.95
29549;BMP280;16487;53.094;8.800;2024-01-10T12:32:05;103495.72;;;2.91
29549;BMP280;16487;53.094;8.800;2024-01-10T12:34:32;103491.91;;;3.31
29549;BMP280;16487;53.094;8.800;2024-01-10T12:37:01;103504.53;;;3.84
29549;BMP280;16487;53.094;8.800;2024-01-10T12:39:28;103523.75;;;4.24
29549;BMP280;16487;53.094;8.800;2024-01-10T12:41:55;103528.31;;;4.32
29549;BMP280;16487;53.094;8.800;2024-01-10T12:44:27;103508.41;;;4.62
29549;BMP280;16487;53.094;8.800;2024-01-10T12:46:54;103533.22;;;4.19
29549;BMP280;16487;53.094;8.800;2024-01-10T12:49:22;103507.81;;;4.14
29549;BMP280;16487;53.094;8.800;2024-01-10T12:51:50;103514.72;;;4.88
29549;BMP280;16487;53.094;8.800;2024-01-10T12:54:18;103495.50;;;4.58
29549;BMP280;16487;53.094;8.800;2024-01-10T12:56:49;103501.97;;;3.65
29549;BMP280;16487;53.094;8.800;2024-01-10T12:59:16;103519.91;;;4.63
29549;BMP280;16487;53.094;8.800;2024-01-10T13:01:43;103508.13;;;4.29
29549;BMP280;16487;53.094;8.800;2024-01-10T13:04:10;103512.34;;;4.58
29549;BMP280;16487;53.094;8.800;2024-01-10T13:06:38;103499.94;;;4.31
29549;BMP280;16487;53.094;8.800;2024-01-10T13:09:05;103505.75;;;4.71
29549;BMP280;16487;53.094;8.800;2024-01-10T13:11:34;103510.13;;;4.54
29549;BMP280;16487;53.094;8.800;2024-01-10T13:14:01;103494.09;;;4.72
29549;BMP280;16487;53.094;8.800;2024-01-10T13:16:28;103494.50;;;4.85
29549;BMP280;16487;53.094;8.800;2024-01-10T13:18:55;103492.97;;;4.82
29549;BMP280;16487;53.094;8.800;2024-01-10T13:21:22;103488.66;;;4.55
29549;BMP280;16487;53.094;8.800;2024-01-10T13:23:49;103481.59;;;4.10
29549;BMP280;16487;53.094;8.800;2024-01-10T13:26:17;103477.31;;;3.81
29549;BMP280;16487;53.094;8.800;2024-01-10T13:28:45;103480.91;;;3.90
29549;BMP280;16487;53.094;8.800;2024-01-10T13:31:13;103472.50;;;4.21
29549;BMP280;16487;53.094;8.800;2024-01-10T13:33:40;103459.03;;;3.68
29549;BMP280;16487;53.094;8.800;2024-01-10T13:36:13;103472.69;;;4.19
29549;BMP280;16487;53.094;8.800;2024-01-10T13:38:40;103467.06;;;4.48
29549;BMP280;16487;53.094;8.800;2024-01-10T13:41:07;103492.19;;;4.64
29549;BMP280;16487;53.094;8.800;2024-01-10T13:43:35;103464.16;;;3.79
29549;BMP280;16487;53.094;8.800;2024-01-10T13:46:03;103463.44;;;4.13
29549;BMP280;16487;53.094;8.800;2024-01-10T13:48:35;103452.75;;;3.59
29549;BMP280;16487;53.094;8.800;2024-01-10T13:51:03;103457.69;;;4.26
29549;BMP280;16487;53.094;8.800;2024-01-10T13:53:30;103475.19;;;4.21
29549;BMP280;16487;53.094;8.800;2024-01-10T13:55:59;103485.63;;;4.76
29549;BMP280;16487;53.094;8.800;2024-01-10T13:58:26;103472.84;;;4.70
29549;BMP280;16487;53.094;8.800;2024-01-10T14:00:53;103507.78;;;5.46
29549;BMP280;16487;53.094;8.800;2024-01-10T14:03:22;103487.06;;;4.97